Attleboro Falls, Massachusetts
Current Conditions -  °F | °C
As of 7:35 PM on Friday 21 Nov 2014 (Local Time) from KSFZ Reporting Station
Clear Clear  
Wind Chill: 17°   Ceiling: Unl
Heat Index: 27°   Visibility: 10mi
Dew Point:   Wind: 10mph
Humidity: 40%   Direction: 260°W
Pressure: 30.35"   Gusts: NA
Location:  41.97°N, 71.32°W
Report Text: KSFZ 220035Z 26009KT 10SM CLR M03/M15 A3035 RMK AO1
Loading
Personal Weather Stations






























Interactive Weather Map New forecast layout! Learn more

10-Day Weather Forecast

Advertisements
Track Severe Weather on mobile